createdAt,value
2024-04-18T00:00:07.568Z,135.03
2024-04-18T00:01:07.711Z,135.13
2024-04-18T00:02:07.711Z,134.70
2024-04-18T00:03:07.766Z,134.47
2024-04-18T00:04:07.963Z,135.74
2024-04-18T00:05:07.954Z,134.68
2024-04-18T00:06:07.964Z,135.94
2024-04-18T00:07:08.087Z,134.76
2024-04-18T00:08:08.096Z,137.71
2024-04-18T00:09:08.162Z,132.69
2024-04-18T00:10:08.188Z,134.52
2024-04-18T00:11:08.398Z,134.12
2024-04-18T00:12:08.328Z,136.83
2024-04-18T00:13:08.372Z,133.92
2024-04-18T00:14:08.436Z,131.85
2024-04-18T00:15:08.490Z,135.52
2024-04-18T00:16:08.572Z,132.89
2024-04-18T00:17:08.635Z,132.20
2024-04-18T00:18:08.722Z,134.35
2024-04-18T00:19:08.738Z,133.96
2024-04-18T00:20:08.770Z,136.41
2024-04-18T00:21:08.836Z,135.05
2024-04-18T00:22:08.883Z,132.58
2024-04-18T00:23:08.946Z,133.30
2024-04-18T00:24:09.060Z,133.91
2024-04-18T00:25:09.047Z,133.51
2024-04-18T00:26:09.111Z,133.73
2024-04-18T00:27:09.184Z,132.51
2024-04-18T00:28:09.255Z,131.78
2024-04-18T00:29:09.313Z,133.31
2024-04-18T00:30:09.365Z,133.85
2024-04-18T00:31:09.431Z,131.73
2024-04-18T00:32:09.633Z,133.79
2024-04-18T00:33:09.632Z,132.08
2024-04-18T00:34:09.600Z,134.36
2024-04-18T00:35:09.707Z,130.38
2024-04-18T00:36:09.695Z,131.89
2024-04-18T00:37:09.730Z,133.08
2024-04-18T00:38:09.790Z,133.62
2024-04-18T00:39:09.961Z,134.05
2024-04-18T00:40:09.926Z,129.80
2024-04-18T00:41:09.995Z,131.79
2024-04-18T00:43:13.662Z,50.00
2024-04-18T00:44:13.665Z,50.00
2024-04-18T00:45:13.685Z,50.00
2024-04-18T00:46:13.683Z,50.00
2024-04-18T00:47:13.670Z,50.00
2024-04-18T00:48:13.886Z,51.31
2024-04-18T00:49:13.867Z,51.33
2024-04-18T00:50:13.675Z,51.44
2024-04-18T00:51:13.708Z,51.61
2024-04-18T00:52:13.670Z,50.38
2024-04-18T00:53:13.681Z,52.68
2024-04-18T00:54:13.695Z,53.26
2024-04-18T00:55:13.672Z,51.45
2024-04-18T00:56:16.780Z,50.23
2024-04-18T00:57:13.731Z,50.43
2024-04-18T00:58:13.780Z,50.87
2024-04-18T00:59:13.692Z,51.08
2024-04-18T01:00:13.734Z,52.00
2024-04-18T01:01:13.767Z,53.19
2024-04-18T01:02:13.694Z,52.10
2024-04-18T01:03:13.819Z,52.34
2024-04-18T01:04:13.815Z,53.66
2024-04-18T01:05:13.726Z,54.45
2024-04-18T01:06:13.742Z,53.13
2024-04-18T01:07:13.731Z,54.71
2024-04-18T01:08:13.704Z,51.25
2024-04-18T01:09:13.745Z,51.13
2024-04-18T01:10:13.739Z,51.68
2024-04-18T01:11:13.821Z,51.85
2024-04-18T01:12:13.720Z,52.10
2024-04-18T01:13:13.700Z,50.67
2024-04-18T01:14:13.693Z,51.68
2024-04-18T01:15:13.734Z,52.47
2024-04-18T01:16:13.697Z,53.70
2024-04-18T01:17:13.741Z,54.35
2024-04-18T01:18:13.914Z,54.78
2024-04-18T01:19:13.710Z,53.72
2024-04-18T01:20:13.704Z,51.57
2024-04-18T01:21:13.727Z,53.17
2024-04-18T01:22:13.719Z,53.47
2024-04-18T01:23:13.732Z,53.52
2024-04-18T01:24:13.722Z,52.27
2024-04-18T01:25:13.701Z,51.92
2024-04-18T01:26:13.716Z,51.92
2024-04-18T01:27:13.749Z,52.33
2024-04-18T01:28:13.767Z,53.34
2024-04-18T01:29:13.789Z,53.93
2024-04-18T01:30:13.856Z,50.69
2024-04-18T01:31:13.830Z,52.66
2024-04-18T01:32:13.843Z,51.30
2024-04-18T01:33:13.985Z,52.55
2024-04-18T01:34:13.980Z,54.05
2024-04-18T01:35:13.899Z,55.05
2024-04-18T01:36:13.933Z,52.63
2024-04-18T01:37:13.949Z,55.25
2024-04-18T01:38:13.975Z,54.48
2024-04-18T01:39:14.005Z,53.73
2024-04-18T01:40:14.023Z,51.10
2024-04-18T01:41:14.062Z,54.53
2024-04-18T01:42:14.125Z,51.14
2024-04-18T01:43:14.133Z,55.48
2024-04-18T01:44:14.156Z,53.09
2024-04-18T01:45:14.186Z,53.41
2024-04-18T01:46:14.170Z,55.24
2024-04-18T01:47:14.217Z,51.78
2024-04-18T01:48:14.401Z,51.32
2024-04-18T01:49:14.312Z,52.10
2024-04-18T01:50:14.248Z,53.00
2024-04-18T01:51:14.341Z,54.24
2024-04-18T01:52:14.315Z,53.04
2024-04-18T01:53:14.333Z,52.82
2024-04-18T01:54:14.409Z,53.88
2024-04-18T01:55:14.483Z,53.01
2024-04-18T01:56:14.439Z,52.23
2024-04-18T01:57:14.568Z,52.58
2024-04-18T01:58:14.422Z,52.31
2024-04-18T01:59:14.482Z,51.41
2024-04-18T02:00:14.537Z,52.59
2024-04-18T02:01:14.581Z,53.43
2024-04-18T02:02:14.518Z,52.93
2024-04-18T02:03:14.631Z,53.57
2024-04-18T02:04:14.674Z,53.18
2024-04-18T02:05:14.583Z,55.50
2024-04-18T02:06:14.720Z,54.25
2024-04-18T02:07:14.634Z,52.90
2024-04-18T02:08:14.680Z,50.48
2024-04-18T02:09:14.720Z,54.33
2024-04-18T02:10:14.713Z,51.51
2024-04-18T02:11:14.772Z,52.21
2024-04-18T02:12:14.844Z,50.00
2024-04-18T02:13:14.790Z,54.11
2024-04-18T02:14:14.821Z,52.36
2024-04-18T02:15:14.815Z,52.46
2024-04-18T02:16:14.825Z,51.52
2024-04-18T02:17:14.843Z,55.21
2024-04-18T02:18:14.969Z,51.89
2024-04-18T02:19:14.815Z,53.15
2024-04-18T02:20:14.845Z,54.21
2024-04-18T02:21:14.888Z,53.27
2024-04-18T02:22:14.917Z,53.86
2024-04-18T02:23:14.956Z,53.72
2024-04-18T02:24:14.965Z,50.45
2024-04-18T02:25:14.935Z,50.93
2024-04-18T02:26:14.940Z,53.41
2024-04-18T02:27:14.970Z,53.72
2024-04-18T02:28:14.946Z,54.09
2024-04-18T02:29:14.943Z,53.71
2024-04-18T02:30:14.984Z,54.32
2024-04-18T02:31:14.952Z,55.24
2024-04-18T02:32:15.020Z,51.31
2024-04-18T02:33:15.114Z,52.03
2024-04-18T02:34:14.966Z,55.04
2024-04-18T02:35:14.984Z,52.32
2024-04-18T02:36:15.004Z,51.84
2024-04-18T02:37:14.991Z,54.62
2024-04-18T02:38:15.004Z,54.66
2024-04-18T02:39:15.020Z,53.49
2024-04-18T02:40:15.000Z,55.29
2024-04-18T02:41:15.024Z,53.15
2024-04-18T02:42:15.056Z,54.21
2024-04-18T02:43:15.028Z,53.73
2024-04-18T02:44:15.039Z,51.42
2024-04-18T02:45:15.079Z,54.29
2024-04-18T02:46:15.055Z,50.86
2024-04-18T02:47:15.118Z,53.84
2024-04-18T02:48:15.087Z,52.09
2024-04-18T02:49:15.070Z,53.08
2024-04-18T02:50:15.068Z,51.61
2024-04-18T02:51:15.097Z,51.79
2024-04-18T02:52:15.088Z,51.97
2024-04-18T02:53:15.085Z,51.24
2024-04-18T02:54:15.121Z,52.72
2024-04-18T02:55:15.099Z,53.26
2024-04-18T02:56:15.110Z,53.45
2024-04-18T02:57:15.118Z,53.71
2024-04-18T02:58:15.121Z,53.10
2024-04-18T02:59:15.118Z,52.17
2024-04-18T03:00:15.186Z,53.34
2024-04-18T03:01:15.213Z,53.31
2024-04-18T03:02:15.171Z,54.17
2024-04-18T03:03:15.179Z,54.57
2024-04-18T03:04:15.232Z,54.66
2024-04-18T03:05:15.170Z,53.03
2024-04-18T03:06:15.202Z,54.68
2024-04-18T03:07:15.167Z,53.62
2024-04-18T03:08:15.187Z,55.44
2024-04-18T03:09:15.200Z,52.29
2024-04-18T03:10:15.180Z,52.28
2024-04-18T03:11:15.243Z,55.04
2024-04-18T03:12:15.214Z,55.11
2024-04-18T03:13:15.201Z,51.68
2024-04-18T03:14:15.210Z,53.67
2024-04-18T03:15:15.262Z,53.91
2024-04-18T03:16:15.217Z,52.48
2024-04-18T03:17:15.229Z,55.48
2024-04-18T03:18:15.425Z,51.63
2024-04-18T03:19:15.301Z,53.81
2024-04-18T03:20:15.213Z,52.91
2024-04-18T03:21:15.272Z,51.37
2024-04-18T03:22:15.264Z,51.73
2024-04-18T03:23:15.259Z,53.76
2024-04-18T03:24:15.256Z,53.30
2024-04-18T03:25:15.259Z,52.37
2024-04-18T03:26:15.277Z,52.64
2024-04-18T03:27:15.274Z,52.22
2024-04-18T03:28:15.262Z,55.03
2024-04-18T03:29:15.280Z,52.17
2024-04-18T03:30:15.307Z,53.79
2024-04-18T03:31:15.285Z,52.45
2024-04-18T03:32:15.327Z,53.60
2024-04-18T03:33:15.368Z,53.14
2024-04-18T03:34:15.279Z,53.31
2024-04-18T03:35:15.279Z,53.39
2024-04-18T03:36:15.326Z,53.03
2024-04-18T03:37:15.334Z,54.82
2024-04-18T03:38:15.295Z,53.65
2024-04-18T03:39:15.323Z,53.87
2024-04-18T03:40:15.324Z,51.75
2024-04-18T03:41:15.314Z,54.41
2024-04-18T03:42:15.363Z,54.40
2024-04-18T03:43:15.321Z,54.37
2024-04-18T03:44:15.328Z,55.01
2024-04-18T03:45:15.434Z,53.61
2024-04-18T03:46:15.364Z,54.63
2024-04-18T03:47:15.420Z,53.28
2024-04-18T03:48:15.399Z,53.32
2024-04-18T03:49:15.457Z,54.41
2024-04-18T03:50:15.393Z,53.16
2024-04-18T03:51:15.437Z,53.43
2024-04-18T03:52:15.396Z,51.09
2024-04-18T03:53:15.417Z,51.28
2024-04-18T03:54:15.456Z,54.05
2024-04-18T03:55:15.460Z,54.24
2024-04-18T03:56:15.439Z,53.64
2024-04-18T03:57:15.466Z,53.70
2024-04-18T03:58:15.471Z,53.53
2024-04-18T03:59:15.467Z,53.41
2024-04-18T04:00:15.531Z,54.08
2024-04-18T04:01:15.652Z,51.95
2024-04-18T04:02:15.535Z,53.18
2024-04-18T04:03:15.601Z,53.96
2024-04-18T04:04:15.562Z,53.80
2024-04-18T04:05:15.537Z,53.94
2024-04-18T04:06:15.572Z,54.45
2024-04-18T04:07:15.584Z,54.01
2024-04-18T04:08:15.569Z,54.18
2024-04-18T04:09:15.602Z,52.33
2024-04-18T04:10:15.630Z,53.14
2024-04-18T04:11:15.721Z,54.09
2024-04-18T04:12:15.636Z,51.08
2024-04-18T04:13:15.637Z,54.87
2024-04-18T04:14:15.641Z,53.01
2024-04-18T04:15:15.675Z,54.26
2024-04-18T04:16:15.678Z,53.92
2024-04-18T04:17:15.681Z,51.45
2024-04-18T04:18:15.835Z,53.45
2024-04-18T04:19:15.756Z,54.58
2024-04-18T04:20:15.722Z,54.48
2024-04-18T04:21:15.770Z,53.77
2024-04-18T04:22:15.748Z,53.65
2024-04-18T04:23:15.772Z,52.62
2024-04-18T04:24:15.789Z,54.50
2024-04-18T04:25:15.785Z,54.46
2024-04-18T04:26:15.831Z,54.78
2024-04-18T04:27:15.833Z,54.46
2024-04-18T04:28:15.827Z,53.83
2024-04-18T04:29:23.026Z,50.00
2024-04-18T04:30:23.027Z,50.00
2024-04-18T04:31:30.219Z,50.00
2024-04-18T04:32:30.403Z,50.00
2024-04-18T04:33:30.258Z,50.00
2024-04-18T04:34:30.193Z,50.00
2024-04-18T04:35:30.202Z,50.00
2024-04-18T04:36:30.262Z,51.16
2024-04-18T04:37:30.203Z,50.21
2024-04-18T04:38:30.191Z,52.69
2024-04-18T04:39:30.308Z,53.16
2024-04-18T04:40:30.205Z,50.00
2024-04-18T04:41:30.192Z,53.40
2024-04-18T04:42:30.228Z,52.63
2024-04-18T04:43:30.196Z,51.52
2024-04-18T04:44:30.202Z,51.77
2024-04-18T04:45:30.217Z,50.62
2024-04-18T04:46:30.219Z,52.56
2024-04-18T04:47:30.210Z,53.57
2024-04-18T04:48:32.159Z,52.48
2024-04-18T04:49:30.270Z,52.64
2024-04-18T04:50:30.212Z,52.86
2024-04-18T04:51:30.232Z,52.90
2024-04-18T04:52:30.210Z,53.20
2024-04-18T04:53:30.213Z,54.58
2024-04-18T04:54:30.268Z,52.73
2024-04-18T04:55:30.244Z,52.95
2024-04-18T04:56:30.216Z,54.85
2024-04-18T04:57:30.258Z,51.75
2024-04-18T04:58:30.239Z,52.32
2024-04-18T04:59:30.245Z,50.00
2024-04-18T05:00:30.269Z,50.63
2024-04-18T05:01:30.249Z,52.63
2024-04-18T05:02:30.359Z,52.65
2024-04-18T05:03:30.295Z,53.11
2024-04-18T05:04:30.284Z,52.85
2024-04-18T05:05:30.258Z,52.84
2024-04-18T05:06:30.268Z,52.87
2024-04-18T05:07:30.229Z,50.79
2024-04-18T05:08:30.255Z,53.86
2024-04-18T05:09:30.271Z,53.43
2024-04-18T05:10:30.246Z,53.81
2024-04-18T05:11:30.363Z,54.09
2024-04-18T05:12:30.285Z,52.85
2024-04-18T05:13:30.253Z,53.29
2024-04-18T05:14:30.283Z,52.51
2024-04-18T05:15:30.249Z,53.34
2024-04-18T05:16:30.299Z,53.11
2024-04-18T05:17:30.266Z,52.87
2024-04-18T05:18:30.292Z,54.45
2024-04-18T05:19:30.290Z,53.81
2024-04-18T05:20:30.258Z,50.38
2024-04-18T05:21:30.329Z,50.80
2024-04-18T05:22:30.267Z,50.00
2024-04-18T05:23:30.277Z,50.18
2024-04-18T05:24:30.315Z,50.00
2024-04-18T05:25:30.266Z,50.00
2024-04-18T05:26:30.289Z,49.26
2024-04-18T05:27:30.412Z,48.26
2024-04-18T05:28:30.271Z,50.22
2024-04-18T05:29:30.268Z,51.07
2024-04-18T05:30:30.302Z,52.82
2024-04-18T05:31:30.326Z,50.46
2024-04-18T05:32:30.438Z,50.12
2024-04-18T05:33:30.375Z,51.58
2024-04-18T05:34:30.329Z,54.40
2024-04-18T05:35:30.283Z,61.73
2024-04-18T05:36:30.358Z,68.73
2024-04-18T05:37:30.278Z,77.08
2024-04-18T05:38:30.280Z,84.32
2024-04-18T05:39:30.303Z,88.77
2024-04-18T05:40:30.318Z,96.54
2024-04-18T05:41:30.313Z,102.48
2024-04-18T05:42:30.343Z,106.68
2024-04-18T05:43:33.225Z,114.05
2024-04-18T05:44:30.308Z,114.27
2024-04-18T05:45:30.336Z,116.31
2024-04-18T05:46:30.332Z,123.86
2024-04-18T05:47:30.378Z,138.34
2024-04-18T05:48:30.354Z,161.35
2024-04-18T05:49:30.318Z,171.32
2024-04-18T05:50:30.382Z,178.75
2024-04-18T05:51:30.444Z,189.70
2024-04-18T05:52:30.327Z,198.04
2024-04-18T05:53:30.302Z,199.80
2024-04-18T05:54:30.382Z,199.27
2024-04-18T05:55:30.313Z,200.69
2024-04-18T05:56:30.344Z,200.00
2024-04-18T05:57:30.376Z,198.65
2024-04-18T05:58:30.373Z,198.69
2024-04-18T05:59:30.315Z,198.94
2024-04-18T06:00:30.380Z,200.00
2024-04-18T06:01:30.430Z,199.26
2024-04-18T06:02:30.333Z,200.00
2024-04-18T06:03:30.384Z,200.00
2024-04-18T06:04:30.350Z,200.00
2024-04-18T06:05:30.334Z,198.96
2024-04-18T06:06:30.365Z,200.04
2024-04-18T06:07:30.333Z,199.89
2024-04-18T06:08:30.340Z,199.67
2024-04-18T06:09:30.411Z,200.00
2024-04-18T06:10:30.333Z,200.00
2024-04-18T06:11:30.889Z,199.82
2024-04-18T06:12:30.493Z,198.88
2024-04-18T06:13:30.550Z,199.99
2024-04-18T06:14:30.599Z,199.89
2024-04-18T06:15:30.702Z,200.00
2024-04-18T06:16:30.744Z,198.93
2024-04-18T06:17:30.809Z,200.00
2024-04-18T06:18:30.915Z,198.80
2024-04-18T06:19:30.907Z,198.61
2024-04-18T06:20:30.948Z,200.00
2024-04-18T06:21:31.102Z,197.97
2024-04-18T06:22:31.069Z,198.78
2024-04-18T06:23:31.123Z,199.82
2024-04-18T06:24:31.226Z,199.62
2024-04-18T06:25:31.248Z,199.88
2024-04-18T06:26:31.290Z,198.82
2024-04-18T06:27:31.377Z,199.47
2024-04-18T06:28:31.416Z,198.29
2024-04-18T06:29:31.444Z,199.08
2024-04-18T06:30:31.589Z,199.34
2024-04-18T06:31:31.551Z,199.78
2024-04-18T06:32:31.682Z,200.00
2024-04-18T06:33:31.839Z,200.00
2024-04-18T06:34:31.726Z,197.21
2024-04-18T06:35:31.806Z,198.44
2024-04-18T06:36:31.913Z,200.00
2024-04-18T06:37:31.896Z,196.51
2024-04-18T06:38:31.916Z,191.34
2024-04-18T06:39:31.994Z,189.18
2024-04-18T06:40:32.008Z,185.55
2024-04-18T06:41:32.028Z,186.24
2024-04-18T06:42:32.050Z,188.74
2024-04-18T06:43:32.079Z,190.29
2024-04-18T06:44:32.121Z,191.15
2024-04-18T06:45:32.193Z,193.95
2024-04-18T06:46:33.846Z,196.56
2024-04-18T06:47:33.270Z,196.71
2024-04-18T06:48:32.296Z,197.43
2024-04-18T06:49:32.185Z,199.42
2024-04-18T06:50:32.176Z,201.86
2024-04-18T06:51:32.216Z,208.54
2024-04-18T06:52:32.180Z,200.00
2024-04-18T06:53:32.228Z,199.55
2024-04-18T06:54:32.212Z,199.79
2024-04-18T06:55:32.183Z,199.70
2024-04-18T06:56:32.378Z,200.00
2024-04-18T06:57:32.230Z,200.00
2024-04-18T06:58:32.203Z,199.98
2024-04-18T06:59:32.195Z,200.00
2024-04-18T07:00:32.232Z,200.00
2024-04-18T07:01:32.891Z,198.75
2024-04-18T07:02:32.210Z,200.00
2024-04-18T07:03:32.335Z,199.24
2024-04-18T07:04:32.354Z,199.98
2024-04-18T07:05:32.199Z,197.88
2024-04-18T07:06:32.241Z,189.79
2024-04-18T07:07:32.213Z,184.33
2024-04-18T07:08:32.227Z,185.43
2024-04-18T07:09:32.252Z,184.09
2024-04-18T07:10:32.215Z,180.53
2024-04-18T07:11:32.241Z,178.71
2024-04-18T07:12:32.250Z,175.48
2024-04-18T07:13:33.803Z,175.52
2024-04-18T07:14:32.356Z,176.38
2024-04-18T07:15:32.411Z,176.12
2024-04-18T07:16:32.440Z,176.38
2024-04-18T07:17:32.539Z,176.90
2024-04-18T07:18:32.514Z,177.57
2024-04-18T07:19:32.406Z,178.03
2024-04-18T07:20:32.463Z,175.93
2024-04-18T07:21:32.460Z,174.71
2024-04-18T07:22:32.457Z,175.59
2024-04-18T07:23:32.508Z,177.07
2024-04-18T07:24:32.597Z,177.44
2024-04-18T07:25:32.636Z,177.61
2024-04-18T07:26:32.888Z,178.99
2024-04-18T07:27:32.835Z,181.49
2024-04-18T07:28:32.850Z,181.09
2024-04-18T07:29:32.897Z,182.66
2024-04-18T07:30:33.024Z,183.59
2024-04-18T07:31:33.098Z,180.45
2024-04-18T07:32:33.059Z,173.44
2024-04-18T07:33:33.254Z,171.57
2024-04-18T07:34:33.169Z,166.09
2024-04-18T07:35:33.205Z,161.93
2024-04-18T07:36:33.303Z,162.71
2024-04-18T07:37:33.300Z,158.39
2024-04-18T07:38:33.364Z,156.79
2024-04-18T07:39:33.455Z,155.18
2024-04-18T07:40:33.470Z,152.40
2024-04-18T07:41:33.515Z,150.24
2024-04-18T07:42:33.610Z,148.67
2024-04-18T07:43:33.615Z,146.23
2024-04-18T07:44:33.710Z,144.67
2024-04-18T07:45:33.700Z,145.30
2024-04-18T07:46:33.896Z,144.52
2024-04-18T07:47:34.129Z,143.69
2024-04-18T07:48:33.928Z,141.74
2024-04-18T07:49:33.920Z,140.05
2024-04-18T07:50:33.963Z,141.00
2024-04-18T07:51:34.031Z,141.39
2024-04-18T07:52:34.073Z,139.77
2024-04-18T07:53:34.105Z,139.78
2024-04-18T07:54:34.165Z,137.20
2024-04-18T07:55:34.248Z,137.79
2024-04-18T07:56:34.704Z,136.50
2024-04-18T07:57:34.622Z,137.23
2024-04-18T07:58:34.816Z,136.32
2024-04-18T07:59:34.752Z,134.90
2024-04-18T08:00:36.028Z,134.37
2024-04-18T08:01:36.520Z,132.72
2024-04-18T08:02:36.228Z,131.10
2024-04-18T08:03:38.955Z,131.54
2024-04-18T08:05:38.700Z,131.64
2024-04-18T08:06:38.352Z,131.69
2024-04-18T08:07:38.846Z,131.66
2024-04-18T08:08:38.741Z,131.65
2024-04-18T08:09:38.502Z,131.61
2024-04-18T08:10:45.410Z,131.61
2024-04-18T08:12:38.415Z,131.61
2024-04-18T08:13:40.066Z,131.64
2024-04-18T08:16:36.396Z,131.60
2024-04-18T08:17:35.465Z,131.65
2024-04-18T08:18:35.353Z,129.73
2024-04-18T08:19:35.366Z,128.62
2024-04-18T08:20:35.365Z,128.38
2024-04-18T08:21:35.378Z,127.85
2024-04-18T08:22:35.460Z,127.78
2024-04-18T08:23:35.394Z,126.73
2024-04-18T08:24:35.594Z,123.48
2024-04-18T08:25:35.394Z,122.45
2024-04-18T08:26:35.400Z,119.04
2024-04-18T08:27:35.975Z,112.92
2024-04-18T08:28:35.369Z,108.82
2024-04-18T08:29:35.403Z,104.47
2024-04-18T08:30:35.648Z,102.40
2024-04-18T08:31:35.560Z,103.48
2024-04-18T08:32:35.709Z,102.36
2024-04-18T08:33:35.731Z,96.25
2024-04-18T08:34:37.534Z,91.36
2024-04-18T08:35:35.729Z,81.65
2024-04-18T08:36:35.745Z,75.32
2024-04-18T08:37:35.720Z,68.36
2024-04-18T08:38:35.720Z,64.62
2024-04-18T08:39:35.750Z,62.46
2024-04-18T08:40:35.721Z,55.22
2024-04-18T08:41:39.227Z,52.14
2024-04-18T08:42:36.785Z,52.16
2024-04-18T08:43:35.722Z,46.12
2024-04-18T08:44:35.736Z,42.38
2024-04-18T08:45:36.303Z,41.39
2024-04-18T08:46:35.736Z,41.12
2024-04-18T08:47:37.696Z,52.21
2024-04-18T08:48:35.906Z,54.62
2024-04-18T08:49:35.784Z,57.55
2024-04-18T08:50:35.726Z,60.29
2024-04-18T08:51:35.841Z,65.51
2024-04-18T08:52:36.593Z,68.59
2024-04-18T08:53:35.748Z,73.41
2024-04-18T08:54:35.825Z,77.83
2024-04-18T08:55:35.727Z,81.88
2024-04-18T08:56:35.780Z,84.63
2024-04-18T08:57:35.847Z,88.46
2024-04-18T08:58:35.927Z,93.19
2024-04-18T08:59:35.999Z,95.38
2024-04-18T09:00:36.153Z,100.08
2024-04-18T09:01:36.104Z,101.77
2024-04-18T09:02:36.258Z,105.16
2024-04-18T09:03:36.251Z,109.19
2024-04-18T09:04:36.495Z,111.77
2024-04-18T09:05:36.957Z,114.48
2024-04-18T09:06:36.457Z,113.20
2024-04-18T09:07:36.468Z,107.83
2024-04-18T09:08:36.578Z,109.00
2024-04-18T09:09:36.652Z,105.62
2024-04-18T09:10:36.665Z,105.61
2024-04-18T09:11:37.085Z,107.19
2024-04-18T09:12:36.907Z,106.96
2024-04-18T09:13:36.864Z,110.35
2024-04-18T09:14:36.942Z,109.08
2024-04-18T09:15:37.032Z,110.97
2024-04-18T09:16:37.071Z,114.59
2024-04-18T09:17:37.174Z,116.81
2024-04-18T09:18:37.441Z,118.96
2024-04-18T09:19:37.237Z,121.27
2024-04-18T09:20:37.314Z,124.84
2024-04-18T09:21:37.434Z,127.36
2024-04-18T09:22:37.460Z,129.06
2024-04-18T09:23:37.456Z,130.20
2024-04-18T09:24:37.570Z,129.82
2024-04-18T09:25:39.928Z,132.03
2024-04-18T09:26:37.642Z,135.09
2024-04-18T09:27:37.603Z,137.46
2024-04-18T09:28:37.620Z,137.30
2024-04-18T09:29:37.606Z,131.19
2024-04-18T09:30:37.719Z,124.60
2024-04-18T09:31:42.351Z,121.49
2024-04-18T09:32:38.706Z,120.38
2024-04-18T09:33:37.761Z,106.26
2024-04-18T09:34:37.643Z,94.37
2024-04-18T09:35:37.622Z,87.91
2024-04-18T09:36:37.655Z,80.31
2024-04-18T09:37:37.885Z,77.45
2024-04-18T09:38:37.613Z,74.83
2024-04-18T09:39:37.661Z,70.57
2024-04-18T09:40:37.625Z,67.59
2024-04-18T09:41:37.958Z,65.54
2024-04-18T09:42:37.673Z,62.62
2024-04-18T09:43:37.634Z,60.24
2024-04-18T09:44:37.634Z,58.87
2024-04-18T09:45:38.547Z,55.40
2024-04-18T09:46:37.938Z,53.79
2024-04-18T09:47:37.983Z,51.58
2024-04-18T09:48:37.754Z,50.35
2024-04-18T09:49:37.779Z,50.00
2024-04-18T09:50:37.750Z,50.74
2024-04-18T09:51:37.814Z,50.00
2024-04-18T09:52:37.938Z,50.65
2024-04-18T09:53:37.773Z,50.75
2024-04-18T09:54:37.850Z,50.00
2024-04-18T09:55:37.815Z,49.87
2024-04-18T09:56:37.931Z,51.01
2024-04-18T09:57:37.972Z,50.00
2024-04-18T09:58:37.917Z,50.96
2024-04-18T09:59:37.909Z,51.33
2024-04-18T10:00:37.995Z,51.23
2024-04-18T10:01:38.528Z,50.77
2024-04-18T10:02:38.471Z,50.60
2024-04-18T10:03:38.121Z,51.22
2024-04-18T10:04:38.104Z,50.65
2024-04-18T10:05:38.062Z,50.00
2024-04-18T10:06:38.222Z,50.50
2024-04-18T10:07:38.137Z,50.30
2024-04-18T10:08:38.154Z,51.30
2024-04-18T10:09:38.261Z,52.56
2024-04-18T10:10:38.215Z,51.56
2024-04-18T10:11:38.435Z,50.34
2024-04-18T10:12:38.286Z,51.23
2024-04-18T10:13:38.358Z,50.96
2024-04-18T10:14:38.348Z,50.00
2024-04-18T10:15:38.468Z,51.24
2024-04-18T10:16:38.423Z,50.00
2024-04-18T10:17:38.520Z,50.00
2024-04-18T10:18:38.709Z,50.43
2024-04-18T10:19:38.575Z,50.87
2024-04-18T10:20:38.537Z,50.29
2024-04-18T10:21:49.649Z,51.31
2024-04-18T10:22:46.594Z,51.33
2024-04-18T10:23:39.675Z,51.32
2024-04-18T10:24:38.800Z,53.56
2024-04-18T10:25:38.552Z,53.50
2024-04-18T10:26:38.566Z,52.79
2024-04-18T10:27:38.622Z,51.46
2024-04-18T10:28:38.566Z,53.46
2024-04-18T10:29:38.598Z,60.94
2024-04-18T10:30:38.573Z,65.05
2024-04-18T10:31:38.590Z,61.00
2024-04-18T10:32:38.643Z,62.73
2024-04-18T10:33:38.735Z,63.07
2024-04-18T10:34:38.579Z,65.33
2024-04-18T10:35:38.591Z,66.49
2024-04-18T10:36:39.310Z,68.38
2024-04-18T10:37:38.609Z,72.02
2024-04-18T10:38:38.650Z,73.80
2024-04-18T10:39:38.667Z,75.45
2024-04-18T10:40:38.591Z,79.14
2024-04-18T10:41:38.605Z,84.68
2024-04-18T10:42:38.699Z,88.35
2024-04-18T10:43:38.951Z,90.77
2024-04-18T10:44:38.619Z,92.47
2024-04-18T10:45:38.724Z,93.85
2024-04-18T10:46:38.618Z,96.79
2024-04-18T10:47:38.607Z,98.66
2024-04-18T10:48:38.768Z,102.10
2024-04-18T10:49:38.673Z,105.83
2024-04-18T10:50:38.594Z,109.10
2024-04-18T10:51:38.642Z,111.43
2024-04-18T10:52:38.684Z,116.54
2024-04-18T10:53:38.603Z,119.89
2024-04-18T10:54:38.714Z,123.19
2024-04-18T10:55:38.588Z,125.77
2024-04-18T10:56:38.600Z,131.05
2024-04-18T10:57:38.787Z,133.46
2024-04-18T10:58:38.617Z,135.91
2024-04-18T10:59:38.622Z,139.07
2024-04-18T11:00:38.707Z,140.89
2024-04-18T11:01:38.989Z,141.01
2024-04-18T11:02:38.988Z,143.68
2024-04-18T11:03:38.774Z,146.45
2024-04-18T11:04:38.687Z,146.76
2024-04-18T11:05:38.605Z,147.00
2024-04-18T11:06:38.668Z,149.18
2024-04-18T11:07:38.622Z,151.05
2024-04-18T11:08:38.608Z,153.85
2024-04-18T11:09:38.626Z,156.51
2024-04-18T11:10:39.006Z,158.79
2024-04-18T11:11:38.681Z,160.36
2024-04-18T11:12:38.783Z,161.37
2024-04-18T11:13:38.859Z,162.09
2024-04-18T11:14:38.888Z,162.67
2024-04-18T11:15:38.955Z,164.40
2024-04-18T11:16:38.959Z,173.10
2024-04-18T11:17:40.061Z,174.44
2024-04-18T11:18:39.330Z,173.55
2024-04-18T11:19:39.179Z,175.77
2024-04-18T11:20:39.242Z,178.54
2024-04-18T11:21:39.547Z,178.11
2024-04-18T11:22:39.483Z,179.89
2024-04-18T11:23:46.817Z,181.36
2024-04-18T11:24:40.467Z,181.47
2024-04-18T11:25:39.433Z,181.84
2024-04-18T11:26:39.409Z,183.36
2024-04-18T11:27:39.449Z,185.37
2024-04-18T11:28:39.417Z,188.09
2024-04-18T11:29:39.409Z,189.52
2024-04-18T11:30:39.482Z,189.40
2024-04-18T11:31:39.412Z,190.38
2024-04-18T11:32:39.486Z,190.45
2024-04-18T11:33:39.577Z,190.70
2024-04-18T11:34:39.541Z,192.17
2024-04-18T11:35:39.576Z,191.48
2024-04-18T11:36:39.660Z,193.13
2024-04-18T11:37:39.665Z,192.51
2024-04-18T11:38:39.674Z,191.89
2024-04-18T11:39:39.785Z,192.98
2024-04-18T11:40:39.732Z,194.36
2024-04-18T11:41:39.748Z,191.82
2024-04-18T11:42:39.864Z,191.96
2024-04-18T11:43:39.779Z,191.88
2024-04-18T11:44:39.792Z,192.08
2024-04-18T11:45:39.800Z,191.81
2024-04-18T11:46:39.815Z,190.82
2024-04-18T11:47:39.893Z,191.98
2024-04-18T11:48:39.882Z,192.29
2024-04-18T11:49:40.409Z,191.15
2024-04-18T11:50:39.832Z,191.93
2024-04-18T11:51:39.963Z,191.93
2024-04-18T11:52:39.819Z,191.62
2024-04-18T11:53:39.827Z,192.18
2024-04-18T11:54:39.850Z,192.73
2024-04-18T11:55:39.823Z,191.14
2024-04-18T11:56:39.845Z,191.27
2024-04-18T11:57:39.835Z,192.31
2024-04-18T11:58:39.848Z,191.08
2024-04-18T11:59:39.880Z,191.52
2024-04-18T12:00:39.951Z,192.96
2024-04-18T12:01:39.875Z,191.33
2024-04-18T12:02:39.894Z,190.91
2024-04-18T12:03:39.981Z,191.67
2024-04-18T12:04:42.300Z,191.29
2024-04-18T12:05:40.021Z,192.10
2024-04-18T12:06:40.045Z,191.54
2024-04-18T12:07:40.024Z,191.82
2024-04-18T12:08:40.027Z,192.00
2024-04-18T12:09:40.044Z,191.27
2024-04-18T12:10:40.056Z,191.47
2024-04-18T12:11:40.110Z,190.05
2024-04-18T12:12:40.097Z,188.43
2024-04-18T12:13:40.134Z,187.95
2024-04-18T12:14:40.109Z,188.51
2024-04-18T12:15:40.173Z,187.56
2024-04-18T12:16:40.215Z,187.65
2024-04-18T12:17:40.189Z,191.73
2024-04-18T12:18:40.170Z,196.14
2024-04-18T12:20:40.208Z,199.49
2024-04-18T12:21:40.223Z,199.68
2024-04-18T12:22:40.242Z,198.13
2024-04-18T12:23:40.245Z,197.16
2024-04-18T12:24:40.293Z,199.52
2024-04-18T12:25:40.269Z,198.80
2024-04-18T12:26:40.321Z,197.99
2024-04-18T12:27:40.341Z,198.60
2024-04-18T12:28:40.323Z,200.00
2024-04-18T12:29:40.400Z,199.35
2024-04-18T12:30:40.449Z,198.28
2024-04-18T12:31:40.361Z,199.07
2024-04-18T12:32:40.471Z,200.00
2024-04-18T12:33:40.419Z,198.66
2024-04-18T12:34:40.418Z,197.08
2024-04-18T12:35:40.409Z,196.42
2024-04-18T12:36:40.502Z,198.96
2024-04-18T12:37:40.454Z,198.57
2024-04-18T12:38:40.444Z,197.42
2024-04-18T12:39:40.532Z,197.62
2024-04-18T12:40:40.507Z,197.82
2024-04-18T12:41:40.487Z,198.06
2024-04-18T12:42:40.604Z,199.60
2024-04-18T12:43:40.534Z,198.59
2024-04-18T12:44:40.641Z,198.37
2024-04-18T12:45:40.637Z,198.90
2024-04-18T12:46:40.683Z,196.27